createdAt,value
2023-04-15T00:01:08.227Z,100111.72
2023-04-15T00:03:35.680Z,100115.78
2023-04-15T00:06:03.819Z,100127.69
2023-04-15T00:08:31.719Z,100134.03
2023-04-15T00:11:03.120Z,100134.59
2023-04-15T00:13:30.936Z,100137.00
2023-04-15T00:15:58.243Z,100132.00
2023-04-15T00:18:25.781Z,100141.44
2023-04-15T00:20:53.559Z,100143.28
2023-04-15T00:23:20.482Z,100142.81
2023-04-15T00:25:47.602Z,100149.19
2023-04-15T00:28:14.772Z,100138.66
2023-04-15T00:30:42.812Z,100149.56
2023-04-15T00:33:10.373Z,100148.28
2023-04-15T00:35:37.703Z,100162.00
2023-04-15T00:38:06.148Z,100160.34
2023-04-15T00:40:33.557Z,100170.38
2023-04-15T00:43:00.659Z,100167.06
2023-04-15T00:45:31.060Z,100170.09
2023-04-15T00:47:58.888Z,100174.78
2023-04-15T00:50:25.896Z,100184.81
2023-04-15T00:52:52.819Z,100184.00
2023-04-15T00:55:19.831Z,100182.53
2023-04-15T00:57:46.994Z,100188.06
2023-04-15T01:00:14.199Z,100189.25
2023-04-15T01:02:42.276Z,100183.44
2023-04-15T01:05:09.799Z,100194.13
2023-04-15T01:07:36.928Z,100199.00
2023-04-15T01:10:04.964Z,100196.34
2023-04-15T01:12:33.382Z,100193.38
2023-04-15T01:15:00.552Z,100197.25
2023-04-15T01:17:27.732Z,100210.13
2023-04-15T01:19:57.010Z,100200.91
2023-04-15T01:22:25.685Z,100212.78
2023-04-15T01:25:02.785Z,100207.44
2023-04-15T01:27:31.405Z,100221.16
2023-04-15T01:29:58.599Z,100218.69
2023-04-15T01:32:25.850Z,100219.88
2023-04-15T01:35:11.992Z,100215.72
2023-04-15T01:37:48.517Z,100224.91
2023-04-15T01:40:17.531Z,100235.13
2023-04-15T01:42:45.829Z,100236.31
2023-04-15T01:45:14.213Z,100233.00
2023-04-15T01:47:42.645Z,100236.69
2023-04-15T01:50:11.794Z,100235.03
2023-04-15T01:52:40.071Z,100229.22
2023-04-15T01:55:09.788Z,100246.06
2023-04-15T01:57:38.167Z,100247.91
2023-04-15T02:00:08.243Z,100243.53
2023-04-15T02:02:42.188Z,100246.22
2023-04-15T02:05:11.149Z,100255.22
2023-04-15T02:07:39.449Z,100250.25
2023-04-15T02:10:07.714Z,100251.78
2023-04-15T02:12:36.983Z,100251.63
2023-04-15T02:15:06.175Z,100255.28
2023-04-15T02:17:37.844Z,100260.16
2023-04-15T02:20:06.833Z,100266.16
2023-04-15T02:22:35.437Z,100264.13
2023-04-15T02:25:04.339Z,100273.16
2023-04-15T02:27:33.755Z,100272.31
2023-04-15T02:30:02.281Z,100269.84
2023-04-15T02:32:30.779Z,100270.84
2023-04-15T02:35:09.153Z,100279.50
2023-04-15T02:37:43.498Z,100277.84
2023-04-15T02:40:13.398Z,100293.03
2023-04-15T02:42:42.958Z,100299.84
2023-04-15T02:45:13.726Z,100299.00
2023-04-15T02:47:43.471Z,100300.69
2023-04-15T02:50:13.366Z,100314.19
2023-04-15T02:52:43.528Z,100300.84
2023-04-15T02:55:12.844Z,100303.34
2023-04-15T02:57:41.600Z,100309.69
2023-04-15T03:00:12.270Z,100309.34
2023-04-15T03:02:47.121Z,100319.00
2023-04-15T03:05:15.795Z,100320.66
2023-04-15T03:07:50.451Z,100322.16
2023-04-15T03:10:19.284Z,100324.66
2023-04-15T03:12:48.675Z,100323.50
2023-04-15T03:15:22.568Z,100313.78
2023-04-15T03:17:53.542Z,100325.28
2023-04-15T03:20:21.904Z,100323.72
2023-04-15T03:22:50.325Z,100325.38
2023-04-15T03:25:20.499Z,100327.34
2023-04-15T03:27:48.703Z,100335.66
2023-04-15T03:30:18.210Z,100336.97
2023-04-15T03:32:47.201Z,100336.44
2023-04-15T03:35:16.012Z,100334.44
2023-04-15T03:37:44.194Z,100340.88
2023-04-15T03:40:12.837Z,100344.84
2023-04-15T03:42:41.163Z,100348.00
2023-04-15T03:45:09.760Z,100341.66
2023-04-15T03:47:38.120Z,100348.91
2023-04-15T03:50:07.509Z,100352.69
2023-04-15T03:52:35.877Z,100360.81
2023-04-15T03:55:04.243Z,100359.91
2023-04-15T03:57:32.550Z,100353.66
2023-04-15T04:00:00.676Z,100353.59
2023-04-15T04:02:29.220Z,100357.19
2023-04-15T04:04:57.432Z,100364.19
2023-04-15T04:07:25.661Z,100355.44
2023-04-15T04:09:53.855Z,100361.47
2023-04-15T04:12:22.106Z,100359.34
2023-04-15T04:14:50.628Z,100365.06
2023-04-15T04:17:18.878Z,100365.16
2023-04-15T04:19:47.112Z,100368.13
2023-04-15T04:22:15.826Z,100382.78
2023-04-15T04:24:43.965Z,100372.53
2023-04-15T04:27:12.244Z,100375.28
2023-04-15T04:29:40.620Z,100370.03
2023-04-15T04:32:09.058Z,100379.00
2023-04-15T04:34:37.222Z,100371.03
2023-04-15T04:37:06.068Z,100378.13
2023-04-15T04:39:34.236Z,100381.25
2023-04-15T04:42:02.426Z,100372.50
2023-04-15T04:44:30.582Z,100364.72
2023-04-15T04:46:58.779Z,100374.41
2023-04-15T04:49:26.978Z,100374.31
2023-04-15T04:51:55.315Z,100374.81
2023-04-15T04:54:23.848Z,100385.78
2023-04-15T04:56:52.127Z,100380.03
2023-04-15T04:59:20.574Z,100378.19
2023-04-15T05:01:48.781Z,100380.69
2023-04-15T05:04:17.350Z,100385.84
2023-04-15T05:06:45.909Z,100380.50
2023-04-15T05:09:14.153Z,100382.78
2023-04-15T05:11:42.351Z,100382.41
2023-04-15T05:14:10.517Z,100379.63
2023-04-15T05:16:38.710Z,100386.28
2023-04-15T05:19:07.892Z,100393.53
2023-04-15T05:21:38.264Z,100381.41
2023-04-15T05:24:07.603Z,100400.06
2023-04-15T05:26:36.114Z,100397.28
2023-04-15T05:29:04.317Z,100387.25
2023-04-15T05:31:32.822Z,100394.13
2023-04-15T05:34:01.583Z,100392.72
2023-04-15T05:36:29.771Z,100396.50
2023-04-15T05:38:57.965Z,100399.66
2023-04-15T05:41:26.154Z,100407.19
2023-04-15T05:43:54.392Z,100400.47
2023-04-15T05:46:22.913Z,100399.94
2023-04-15T05:48:51.102Z,100401.22
2023-04-15T05:51:19.227Z,100402.56
2023-04-15T05:53:47.420Z,100402.19
2023-04-15T05:56:15.844Z,100407.59
2023-04-15T05:58:44.135Z,100412.19
2023-04-15T06:01:12.593Z,100406.63
2023-04-15T06:03:40.948Z,100401.06
2023-04-15T06:06:09.989Z,100412.44
2023-04-15T06:08:38.431Z,100410.16
2023-04-15T06:11:06.657Z,100415.97
2023-04-15T06:13:35.217Z,100414.13
2023-04-15T06:16:04.427Z,100413.72
2023-04-15T06:18:32.599Z,100411.47
2023-04-15T06:21:00.811Z,100418.31
2023-04-15T06:23:29.262Z,100416.09
2023-04-15T06:25:57.493Z,100418.41
2023-04-15T06:28:25.634Z,100428.13
2023-04-15T06:30:54.864Z,100424.81
2023-04-15T06:33:23.093Z,100416.75
2023-04-15T06:35:51.400Z,100425.28
2023-04-15T06:38:19.663Z,100421.72
2023-04-15T06:40:47.993Z,100421.56
2023-04-15T06:43:16.414Z,100419.72
2023-04-15T06:45:44.846Z,100429.47
2023-04-15T06:48:13.269Z,100429.69
2023-04-15T06:50:41.633Z,100434.28
2023-04-15T06:53:10.027Z,100440.28
2023-04-15T06:55:38.356Z,100438.00
2023-04-15T06:58:06.909Z,100434.50
2023-04-15T07:00:35.150Z,100426.63
2023-04-15T07:03:03.965Z,100427.66
2023-04-15T07:05:32.529Z,100433.66
2023-04-15T07:08:01.184Z,100439.88
2023-04-15T07:10:29.794Z,100433.88
2023-04-15T07:12:57.993Z,100443.44
2023-04-15T07:15:26.353Z,100420.66
2023-04-15T07:17:54.819Z,100425.81
2023-04-15T07:20:23.367Z,100434.91
2023-04-15T07:22:51.657Z,100439.50
2023-04-15T07:25:20.074Z,100431.84
2023-04-15T07:27:48.359Z,100435.59
2023-04-15T07:30:17.066Z,100432.28
2023-04-15T07:32:45.283Z,100424.00
2023-04-15T07:35:13.649Z,100424.84
2023-04-15T07:37:43.412Z,100427.53
2023-04-15T07:40:12.179Z,100438.50
2023-04-15T07:42:41.437Z,100434.78
2023-04-15T07:45:10.357Z,100439.97
2023-04-15T07:47:38.700Z,100426.91
2023-04-15T07:50:07.304Z,100438.91
2023-04-15T07:52:39.427Z,100433.50
2023-04-15T07:55:09.265Z,100430.22
2023-04-15T07:57:38.033Z,100430.22
2023-04-15T08:00:07.822Z,100435.59
2023-04-15T08:02:43.554Z,100439.53
2023-04-15T08:05:12.012Z,100436.81
2023-04-15T08:07:40.336Z,100427.31
2023-04-15T08:10:08.877Z,100440.94
2023-04-15T08:12:37.360Z,100431.63
2023-04-15T08:15:06.779Z,100442.81
2023-04-15T08:17:35.357Z,100433.91
2023-04-15T08:20:05.982Z,100437.19
2023-04-15T08:22:34.677Z,100428.66
2023-04-15T08:25:03.603Z,100429.25
2023-04-15T08:27:32.232Z,100423.59
2023-04-15T08:30:02.119Z,100430.59
2023-04-15T08:32:32.165Z,100425.72
2023-04-15T08:35:00.886Z,100419.63
2023-04-15T08:37:29.277Z,100430.16
2023-04-15T08:39:57.565Z,100421.56
2023-04-15T08:42:36.473Z,100428.75
2023-04-15T08:45:06.005Z,100421.19
2023-04-15T08:47:38.997Z,100407.78
2023-04-15T08:50:10.093Z,100411.13
2023-04-15T08:52:38.989Z,100417.06
2023-04-15T08:55:09.815Z,100420.38
2023-04-15T08:57:40.144Z,100418.06
2023-04-15T09:00:09.562Z,100414.88
2023-04-15T09:02:38.053Z,100406.28
2023-04-15T09:05:07.931Z,100413.13
2023-04-15T09:07:36.863Z,100414.31
2023-04-15T09:10:05.589Z,100415.66
2023-04-15T09:12:37.629Z,100415.31
2023-04-15T09:15:06.421Z,100410.44
2023-04-15T09:17:35.012Z,100415.84
2023-04-15T09:20:18.804Z,100413.44
2023-04-15T09:22:48.705Z,100415.00
2023-04-15T09:25:22.983Z,100406.66
2023-04-15T09:27:54.193Z,100402.06
2023-04-15T09:30:22.944Z,100412.53
2023-04-15T09:32:57.220Z,100408.84
2023-04-15T09:35:27.758Z,100406.81
2023-04-15T09:38:07.648Z,100412.66
2023-04-15T09:40:38.155Z,100411.75
2023-04-15T09:43:07.598Z,100412.25
2023-04-15T09:45:37.806Z,100404.41
2023-04-15T09:48:35.582Z,100408.69
2023-04-15T09:51:04.172Z,100408.06
2023-04-15T09:53:36.573Z,100408.81
2023-04-15T09:56:08.045Z,100411.28
2023-04-15T09:58:38.857Z,100404.94
2023-04-15T10:01:09.276Z,100406.84
2023-04-15T10:03:42.496Z,100412.31
2023-04-15T10:06:12.358Z,100414.78
2023-04-15T10:08:41.891Z,100413.78
2023-04-15T10:11:10.630Z,100408.50
2023-04-15T10:13:40.058Z,100412.25
2023-04-15T10:16:16.473Z,100402.84
2023-04-15T10:18:47.552Z,100406.38
2023-04-15T10:21:18.716Z,100406.63
2023-04-15T10:23:47.983Z,100411.44
2023-04-15T10:26:17.906Z,100401.84
2023-04-15T10:28:49.686Z,100408.53
2023-04-15T10:31:18.681Z,100404.75
2023-04-15T10:33:48.835Z,100395.50
2023-04-15T10:36:19.140Z,100403.28
2023-04-15T10:38:47.642Z,100398.53
2023-04-15T10:41:21.192Z,100401.91
2023-04-15T10:43:54.808Z,100386.19
2023-04-15T10:46:37.992Z,100392.16
2023-04-15T10:49:13.007Z,100401.16
2023-04-15T10:51:53.074Z,100396.81
2023-04-15T10:54:27.232Z,100371.06
2023-04-15T10:57:04.215Z,100396.84
2023-04-15T10:59:36.197Z,100403.25
2023-04-15T11:02:07.132Z,100396.94
2023-04-15T11:04:59.194Z,100393.47
2023-04-15T11:07:48.593Z,100391.28
2023-04-15T11:10:26.109Z,100396.03
2023-04-15T11:12:58.005Z,100389.00
2023-04-15T11:15:43.282Z,100386.78
2023-04-15T11:18:22.236Z,100379.72
2023-04-15T11:20:57.473Z,100381.59
2023-04-15T11:23:39.140Z,100393.28
2023-04-15T11:26:11.711Z,100387.28
2023-04-15T11:28:42.230Z,100378.00
2023-04-15T11:31:12.045Z,100375.53
2023-04-15T11:33:47.423Z,100375.84
2023-04-15T11:36:15.750Z,100376.72
2023-04-15T11:38:45.316Z,100373.91
2023-04-15T11:41:14.123Z,100376.56
2023-04-15T11:43:42.989Z,100365.28
2023-04-15T11:46:11.459Z,100371.88
2023-04-15T11:48:44.312Z,100370.78
2023-04-15T11:51:13.745Z,100363.97
2023-04-15T11:53:48.902Z,100372.78
2023-04-15T11:56:26.708Z,100358.53
2023-04-15T11:58:59.884Z,100370.06
2023-04-15T12:01:41.499Z,100359.22
2023-04-15T12:04:17.805Z,100356.34
2023-04-15T12:06:45.850Z,100355.19
2023-04-15T12:09:14.133Z,100354.25
2023-04-15T12:11:49.165Z,100359.63
2023-04-15T12:14:16.074Z,100358.72
2023-04-15T12:16:48.879Z,100347.59
2023-04-15T12:19:24.429Z,100346.31
2023-04-15T12:21:52.563Z,100345.53
2023-04-15T12:24:23.421Z,100343.41
2023-04-15T12:26:53.715Z,100365.63
2023-04-15T12:29:25.104Z,100341.09
2023-04-15T12:31:56.840Z,100343.81
2023-04-15T12:34:33.916Z,100336.38
2023-04-15T12:37:04.985Z,100338.56
2023-04-15T12:39:36.069Z,100351.16
2023-04-15T12:42:04.551Z,100354.72
2023-04-15T12:44:33.207Z,100350.81
2023-04-15T12:47:00.758Z,100346.69
2023-04-15T12:49:28.286Z,100343.16
2023-04-15T12:52:02.931Z,100345.56
2023-04-15T12:54:31.542Z,100337.91
2023-04-15T12:56:59.627Z,100339.19
2023-04-15T12:59:26.602Z,100339.59
2023-04-15T13:01:54.461Z,100332.13
2023-04-15T13:04:22.537Z,100335.19
2023-04-15T13:06:50.000Z,100332.25
2023-04-15T13:09:17.028Z,100342.44
2023-04-15T13:11:44.628Z,100332.84
2023-04-15T13:14:13.239Z,100338.06
2023-04-15T13:16:41.070Z,100347.97
2023-04-15T13:19:08.514Z,100341.88
2023-04-15T13:21:37.155Z,100344.25
2023-04-15T13:24:05.198Z,100346.72
2023-04-15T13:26:33.059Z,100351.63
2023-04-15T13:29:00.734Z,100341.97
2023-04-15T13:31:28.109Z,100345.25
2023-04-15T13:33:57.191Z,100348.28
2023-04-15T13:36:24.555Z,100327.03
2023-04-15T13:38:52.022Z,100343.88
2023-04-15T13:41:20.201Z,100340.34
2023-04-15T13:43:47.529Z,100338.22
2023-04-15T13:46:14.928Z,100324.84
2023-04-15T13:48:42.171Z,100341.28
2023-04-15T13:51:09.221Z,100344.56
2023-04-15T13:53:39.027Z,100341.81
2023-04-15T13:56:10.941Z,100339.06
2023-04-15T13:58:38.695Z,100341.44
2023-04-15T14:01:06.960Z,100341.84
2023-04-15T14:03:37.717Z,100339.19
2023-04-15T14:06:05.977Z,100334.56
2023-04-15T14:08:33.477Z,100331.56
2023-04-15T14:11:01.101Z,100328.03
2023-04-15T14:13:28.229Z,100328.69
2023-04-15T14:15:56.750Z,100336.69
2023-04-15T14:18:24.034Z,100334.81
2023-04-15T14:20:51.865Z,100343.00
2023-04-15T14:23:19.364Z,100335.31
2023-04-15T14:25:48.312Z,100339.53
2023-04-15T14:28:16.554Z,100334.03
2023-04-15T14:30:43.746Z,100342.09
2023-04-15T14:33:11.010Z,100334.88
2023-04-15T14:35:38.204Z,100336.69
2023-04-15T14:38:06.304Z,100341.06
2023-04-15T14:40:33.921Z,100331.69
2023-04-15T14:43:00.899Z,100335.50
2023-04-15T14:45:28.417Z,100340.72
2023-04-15T14:47:55.398Z,100327.03
2023-04-15T14:50:22.373Z,100334.81
2023-04-15T14:52:49.341Z,100334.56
2023-04-15T14:55:16.299Z,100319.78
2023-04-15T14:57:43.386Z,100317.44
2023-04-15T15:00:13.746Z,100329.19
2023-04-15T15:02:43.849Z,100311.03
2023-04-15T15:05:12.100Z,100319.94
2023-04-15T15:07:41.053Z,100322.44
2023-04-15T15:10:09.161Z,100314.66
2023-04-15T15:12:36.378Z,100316.13
2023-04-15T15:15:12.480Z,100311.16
2023-04-15T15:17:47.168Z,100324.44
2023-04-15T15:20:14.247Z,100322.44
2023-04-15T15:22:41.283Z,100327.94
2023-04-15T15:25:08.656Z,100312.78
2023-04-15T15:27:38.143Z,100326.38
2023-04-15T15:30:06.946Z,100324.91
2023-04-15T15:32:34.145Z,100316.28
2023-04-15T15:35:01.223Z,100329.22
2023-04-15T15:37:31.540Z,100322.19
2023-04-15T15:39:59.264Z,100327.09
2023-04-15T15:42:26.702Z,100318.28
2023-04-15T15:44:53.769Z,100317.34
2023-04-15T15:47:22.305Z,100312.88
2023-04-15T15:49:49.880Z,100313.31
2023-04-15T15:52:17.168Z,100316.59
2023-04-15T15:54:44.203Z,100311.22
2023-04-15T15:57:11.517Z,100319.34
2023-04-15T15:59:43.869Z,100315.09
2023-04-15T16:02:11.924Z,100314.28
2023-04-15T16:04:39.767Z,100323.75
2023-04-15T16:07:07.199Z,100320.34
2023-04-15T16:09:34.656Z,100326.22
2023-04-15T16:12:03.405Z,100325.22
2023-04-15T16:14:30.634Z,100327.13
2023-04-15T16:16:58.238Z,100318.88
2023-04-15T16:19:25.550Z,100329.44
2023-04-15T16:21:52.696Z,100325.81
2023-04-15T16:24:19.772Z,100328.47
2023-04-15T16:26:46.791Z,100319.78
2023-04-15T16:29:13.907Z,100335.22
2023-04-15T16:31:41.618Z,100326.19
2023-04-15T16:34:08.963Z,100328.69
2023-04-15T16:36:36.239Z,100322.44
2023-04-15T16:39:03.509Z,100316.78
2023-04-15T16:41:31.744Z,100326.63
2023-04-15T16:44:01.438Z,100321.53
2023-04-15T16:46:29.750Z,100324.09
2023-04-15T16:48:57.049Z,100326.38
2023-04-15T16:51:24.282Z,100332.22
2023-04-15T16:53:51.448Z,100332.59
2023-04-15T16:56:18.451Z,100334.44
2023-04-15T16:58:45.428Z,100334.72
2023-04-15T17:01:12.466Z,100332.53
2023-04-15T17:03:40.154Z,100326.84
2023-04-15T17:06:07.238Z,100327.13
2023-04-15T17:08:34.231Z,100338.44
2023-04-15T17:11:01.429Z,100323.78
2023-04-15T17:13:28.649Z,100340.06
2023-04-15T17:15:56.156Z,100334.94
2023-04-15T17:18:29.726Z,100334.34
2023-04-15T17:21:07.929Z,100333.19
2023-04-15T17:23:38.789Z,100335.72
2023-04-15T17:26:06.804Z,100338.47
2023-04-15T17:28:34.192Z,100342.28
2023-04-15T17:31:05.807Z,100341.72
2023-04-15T17:34:00.182Z,100342.59
2023-04-15T17:36:55.224Z,100342.22
2023-04-15T17:39:42.467Z,100352.59
2023-04-15T17:42:29.336Z,100344.13
2023-04-15T17:45:16.459Z,100347.47
2023-04-15T17:48:05.844Z,100340.66
2023-04-15T17:50:52.985Z,100342.13
2023-04-15T17:53:39.993Z,100345.25
2023-04-15T17:56:29.363Z,100348.41
2023-04-15T17:59:16.743Z,100347.81
2023-04-15T18:02:03.833Z,100349.69
2023-04-15T18:04:51.010Z,100350.94
2023-04-15T18:07:38.016Z,100354.28
2023-04-15T18:10:25.076Z,100347.44
2023-04-15T18:13:12.017Z,100345.41
2023-04-15T18:15:59.031Z,100356.84
2023-04-15T18:18:46.131Z,100359.16
2023-04-15T18:21:13.857Z,100353.31
2023-04-15T18:23:41.250Z,100352.72
2023-04-15T18:26:08.287Z,100361.03
2023-04-15T18:28:35.902Z,100360.63
2023-04-15T18:31:03.947Z,100355.66
2023-04-15T18:33:31.184Z,100361.06
2023-04-15T18:35:58.446Z,100356.31
2023-04-15T18:38:25.463Z,100360.06
2023-04-15T18:40:52.471Z,100355.09
2023-04-15T18:43:19.436Z,100362.97
2023-04-15T18:45:46.870Z,100359.03
2023-04-15T18:48:15.957Z,100361.31
2023-04-15T18:50:43.641Z,100361.31
2023-04-15T18:53:10.825Z,100360.47
2023-04-15T18:55:39.851Z,100370.44
2023-04-15T18:58:08.858Z,100370.66
2023-04-15T19:00:40.704Z,100364.84
2023-04-15T19:03:08.343Z,100363.59
2023-04-15T19:05:36.088Z,100365.06
2023-04-15T19:08:03.188Z,100370.47
2023-04-15T19:10:30.139Z,100376.06
2023-04-15T19:12:57.149Z,100376.47
2023-04-15T19:15:24.213Z,100376.88
2023-04-15T19:17:51.307Z,100373.19
2023-04-15T19:20:18.605Z,100374.84
2023-04-15T19:22:46.369Z,100383.97
2023-04-15T19:25:13.567Z,100377.94
2023-04-15T19:27:40.686Z,100371.53
2023-04-15T19:30:08.324Z,100381.06
2023-04-15T19:32:36.247Z,100374.84
2023-04-15T19:35:03.469Z,100381.72
2023-04-15T19:37:30.515Z,100381.06
2023-04-15T19:39:57.417Z,100382.72
2023-04-15T19:42:24.424Z,100384.19
2023-04-15T19:44:51.356Z,100389.97
2023-04-15T19:47:18.372Z,100396.63
2023-04-15T19:49:45.464Z,100391.03
2023-04-15T19:52:12.631Z,100399.31
2023-04-15T19:54:39.693Z,100394.97
2023-04-15T19:57:06.946Z,100392.50
2023-04-15T19:59:34.190Z,100403.25
2023-04-15T20:02:01.385Z,100386.47
2023-04-15T20:04:28.667Z,100392.69
2023-04-15T20:06:56.278Z,100403.47
2023-04-15T20:09:23.237Z,100402.84
2023-04-15T20:12:06.170Z,100398.94
2023-04-15T20:14:37.946Z,100406.38
2023-04-15T20:17:04.920Z,100409.88
2023-04-15T20:19:31.826Z,100419.00
2023-04-15T20:21:59.032Z,100419.22
2023-04-15T20:24:27.725Z,100422.13
2023-04-15T20:26:54.880Z,100418.59
2023-04-15T20:29:21.867Z,100422.34
2023-04-15T20:31:48.805Z,100436.84
2023-04-15T20:34:15.913Z,100423.56
2023-04-15T20:36:43.109Z,100423.56
2023-04-15T20:39:10.022Z,100421.09
2023-04-15T20:41:37.242Z,100418.59
2023-04-15T20:44:04.271Z,100415.31
2023-04-15T20:46:31.530Z,100421.50
2023-04-15T20:48:58.528Z,100414.47
2023-04-15T20:51:27.281Z,100425.25
2023-04-15T20:53:54.366Z,100421.72
2023-04-15T20:56:21.670Z,100420.28
2023-04-15T20:58:48.602Z,100425.25
2023-04-15T21:01:15.580Z,100428.16
2023-04-15T21:03:42.916Z,100429.41
2023-04-15T21:06:10.681Z,100425.44
2023-04-15T21:08:37.674Z,100430.22
2023-04-15T21:11:04.760Z,100419.44
2023-04-15T21:13:31.732Z,100434.75
2023-04-15T21:15:59.360Z,100432.06
2023-04-15T21:18:26.587Z,100425.41
2023-04-15T21:20:58.127Z,100432.25
2023-04-15T21:23:26.300Z,100432.84
2023-04-15T21:25:53.423Z,100439.88
2023-04-15T21:28:20.518Z,100431.81
2023-04-15T21:30:47.930Z,100437.59
2023-04-15T21:33:15.790Z,100437.38
2023-04-15T21:35:42.726Z,100438.41
2023-04-15T21:38:09.721Z,100447.25
2023-04-15T21:40:40.634Z,100440.84
2023-04-15T21:43:08.248Z,100452.00
2023-04-15T21:45:36.141Z,100451.78
2023-04-15T21:48:07.377Z,100450.31
2023-04-15T21:50:38.639Z,100453.22
2023-04-15T21:53:08.494Z,100464.38
2023-04-15T21:55:36.168Z,100456.88
2023-04-15T21:58:04.379Z,100469.31
2023-04-15T22:00:31.622Z,100475.91
2023-04-15T22:02:58.931Z,100472.81
2023-04-15T22:05:26.651Z,100473.00
2023-04-15T22:07:53.629Z,100466.38
2023-04-15T22:10:20.998Z,100471.13
2023-04-15T22:12:47.884Z,100467.81
2023-04-15T22:15:15.427Z,100474.41
2023-04-15T22:17:42.602Z,100472.13
2023-04-15T22:20:10.237Z,100469.84
2023-04-15T22:22:44.225Z,100475.41
2023-04-15T22:25:12.477Z,100479.94
2023-04-15T22:27:39.435Z,100480.13
2023-04-15T22:30:07.048Z,100473.88
2023-04-15T22:32:34.187Z,100476.38
2023-04-15T22:35:01.622Z,100474.28
2023-04-15T22:37:31.716Z,100493.28
2023-04-15T22:39:59.206Z,100481.28
2023-04-15T22:42:26.225Z,100488.53
2023-04-15T22:44:53.243Z,100484.56
2023-04-15T22:47:20.286Z,100490.97
2023-04-15T22:49:47.401Z,100483.50
2023-04-15T22:52:20.225Z,100492.38
2023-04-15T22:54:54.495Z,100482.22
2023-04-15T22:57:21.540Z,100492.59
2023-04-15T22:59:48.447Z,100500.66
2023-04-15T23:02:15.799Z,100495.28
2023-04-15T23:04:43.251Z,100490.94
2023-04-15T23:07:10.273Z,100478.06
2023-04-15T23:09:39.702Z,100498.72
2023-04-15T23:12:06.914Z,100490.94
2023-04-15T23:14:33.943Z,100497.31
2023-04-15T23:17:01.148Z,100500.00
2023-04-15T23:19:28.277Z,100497.50
2023-04-15T23:21:55.628Z,100499.34
2023-04-15T23:24:22.763Z,100500.59
2023-04-15T23:26:49.859Z,100505.75
2023-04-15T23:29:16.873Z,100506.97
2023-04-15T23:31:43.998Z,100502.44
2023-04-15T23:34:11.079Z,100506.16
2023-04-15T23:36:38.284Z,100513.56
2023-04-15T23:39:05.274Z,100516.47
2023-04-15T23:41:32.227Z,100517.88
2023-04-15T23:43:59.204Z,100518.66
2023-04-15T23:46:26.205Z,100528.19
2023-04-15T23:48:53.380Z,100515.78
2023-04-15T23:51:20.510Z,100515.13
2023-04-15T23:53:47.515Z,100510.16
2023-04-15T23:56:14.543Z,100520.28
2023-04-15T23:58:41.484Z,100525.84
